Time;durP1;ratioP1;P1;durP2;ratioP2;P2;SDS_P1;SDS_P2;PMS_P1;PMS_P2;Temp;Humidity;BMP_temperature;BMP_pressure;BME280_temperature;BME280_humidity;BME280_pressure;Samples;Min_cycle;Max_cycle;Signal;HPM_P1;HPM_P2
2022/01/10 00:01:19;;;;;;;;;;;;;;;-2.13;100.00;99691.00;5597093;31;34936;-82
2022/01/10 00:04:27;;;;;;;;;;;;;;;-2.11;100.00;99699.56;5596608;31;34552;-82
2022/01/10 00:07:30;;;;;;;;;;;;;;;-2.03;100.00;99694.84;5599001;31;34183;-82
2022/01/10 00:10:37;;;;;;;;;;;;;;;-1.81;100.00;99693.75;5601267;31;34291;-82
2022/01/10 00:13:39;;;;;;;;;;;;;;;-1.66;100.00;99690.41;5596795;31;34036;-81
2022/01/10 00:16:42;;;;;;;;;;;;;;;-1.69;100.00;99690.56;5597581;31;34891;-81
2022/01/10 00:19:46;;;;;;;;;;;;;;;-1.82;100.00;99685.16;5597743;31;35276;-81
2022/01/10 00:22:50;;;;;;;;;;;;;;;-1.88;100.00;99690.63;5596588;31;34279;-81
2022/01/10 00:25:53;;;;;;;;;;;;;;;-1.94;100.00;99691.78;5597614;31;34566;-81
2022/01/10 00:28:55;;;;;;;;;;;;;;;-1.97;100.00;99691.94;5596042;31;34165;-83
2022/01/10 00:31:58;;;;;;;;;;;;;;;-2.03;100.00;99687.06;5600376;31;34370;-82
2022/01/10 00:35:02;;;;;;;;;;;;;;;-2.03;100.00;99693.06;5597510;31;34856;-82
2022/01/10 00:38:04;;;;;;;;;;;;;;;-1.99;100.00;99691.19;5597045;31;34755;-82
2022/01/10 00:41:09;;;;;;;;;;;;;;;-2.00;100.00;99699.88;5596606;31;34198;-82
2022/01/10 00:44:13;;;;;;;;;;;;;;;-1.97;100.00;99697.09;5601325;31;35035;-82
2022/01/10 00:47:20;;;;;;;;;;;;;;;-1.96;100.00;99693.59;5599769;31;34977;-82
2022/01/10 00:50:24;;;;;;;;;;;;;;;-1.99;100.00;99693.78;5596441;31;35495;-82
2022/01/10 00:53:27;;;;;;;;;;;;;;;-2.04;100.00;99698.34;5596011;31;35525;-82
2022/01/10 00:56:30;;;;;;;;;;;;;;;-2.00;100.00;99699.88;5596363;31;34967;-82
2022/01/10 00:59:32;;;;;;;;;;;;;;;-1.97;100.00;99699.69;5596501;31;34718;-82
2022/01/10 01:02:35;;;;;;;;;;;;;;;-2.00;100.00;99707.66;5597740;31;34966;-82
2022/01/10 01:05:42;;;;;;;;;;;;;;;-2.12;100.00;99703.87;5597733;31;34912;-82
2022/01/10 01:08:45;;;;;;;;;;;;;;;-2.12;100.00;99708.25;5597290;31;34434;-82
2022/01/10 01:15:18;;;;;;;;;;;;;;;-1.76;100.00;99705.59;5597519;31;34317;-82
2022/01/10 01:18:42;;;;;;;;;;;;;;;-1.87;100.00;99703.53;5597298;31;34439;-81
2022/01/10 01:25:06;;;;;;;;;;;;;;;-1.96;100.00;99703.97;5595750;31;34365;-82
2022/01/10 01:28:08;;;;;;;;;;;;;;;-2.08;100.00;99713.22;5597163;31;34981;-82
2022/01/10 01:31:11;;;;;;;;;;;;;;;-2.19;100.00;99705.94;5597572;31;34458;-82
2022/01/10 01:34:17;;;;;;;;;;;;;;;-2.21;100.00;99710.38;5596199;31;34346;-82
2022/01/10 01:37:20;;;;;;;;;;;;;;;-2.22;100.00;99713.88;5597512;31;34451;-82
2022/01/10 01:40:27;;;;;;;;;;;;;;;-2.30;100.00;99715.16;5596866;31;34366;-82
2022/01/10 01:43:30;;;;;;;;;;;;;;;-2.37;100.00;99709.44;5595141;31;34772;-82
2022/01/10 01:46:33;;;;;;;;;;;;;;;-2.38;100.00;99720.69;5597764;31;34374;-82
2022/01/10 01:49:36;;;;;;;;;;;;;;;-2.24;100.00;99720.03;5598321;31;34991;-82
2022/01/10 01:52:42;;;;;;;;;;;;;;;-2.30;100.00;99728.94;5596005;31;33994;-82
2022/01/10 01:55:47;;;;;;;;;;;;;;;-2.28;100.00;99719.34;5595612;31;34945;-82
2022/01/10 01:58:54;;;;;;;;;;;;;;;-2.23;100.00;99729.50;5600175;31;34633;-82
2022/01/10 02:01:57;;;;;;;;;;;;;;;-2.20;100.00;99725.03;5600786;31;35494;-82
2022/01/10 02:05:09;;;;;;;;;;;;;;;-2.15;100.00;99724.81;5596695;31;35035;-82
2022/01/10 02:08:14;;;;;;;;;;;;;;;-2.08;100.00;99720.13;5596696;31;35267;-82
2022/01/10 02:11:17;;;;;;;;;;;;;;;-2.06;100.00;99728.69;5597253;31;34183;-82
2022/01/10 02:14:20;;;;;;;;;;;;;;;-1.87;100.00;99724.28;5596466;31;35466;-82
2022/01/10 02:17:34;;;;;;;;;;;;;;;-1.84;100.00;99722.44;5595630;31;36069;-82
2022/01/10 02:20:37;;;;;;;;;;;;;;;-1.83;99.61;99718.94;5595453;31;34160;-82
2022/01/10 02:23:42;;;;;;;;;;;;;;;-1.69;97.80;99721.69;5595101;31;34657;-82
2022/01/10 02:26:48;;;;;;;;;;;;;;;-1.60;96.50;99726.41;5595038;31;33891;-82
2022/01/10 02:29:53;;;;;;;;;;;;;;;-1.73;97.75;99715.81;5595566;31;34675;-82
2022/01/10 02:32:57;;;;;;;;;;;;;;;-1.79;98.23;99720.47;5595158;31;35391;-83
2022/01/10 02:39:09;;;;;;;;;;;;;;;-1.71;98.50;99724.34;5595917;31;35011;-82
2022/01/10 02:42:15;;;;;;;;;;;;;;;-1.74;99.33;99724.50;5595295;31;34434;-82
2022/01/10 02:45:18;;;;;;;;;;;;;;;-1.70;98.87;99725.19;5595540;31;34304;-82
2022/01/10 02:48:20;;;;;;;;;;;;;;;-1.65;99.53;99732.72;5594855;31;34343;-82
2022/01/10 02:51:31;;;;;;;;;;;;;;;-1.67;100.00;99726.78;5594708;31;34488;-82
2022/01/10 02:54:34;;;;;;;;;;;;;;;-1.69;100.00;99724.28;5596864;31;34001;-82
2022/01/10 02:57:43;;;;;;;;;;;;;;;-1.73;100.00;99728.78;5595984;31;35002;-82
2022/01/10 03:00:49;;;;;;;;;;;;;;;-1.75;100.00;99729.78;5595285;31;34278;-82
2022/01/10 03:03:54;;;;;;;;;;;;;;;-1.65;99.93;99731.00;5595209;31;35155;-82
2022/01/10 03:06:58;;;;;;;;;;;;;;;-1.73;100.00;99736.56;5597259;31;35042;-83
2022/01/10 03:10:02;;;;;;;;;;;;;;;-1.77;100.00;99736.78;5600229;31;35398;-82
2022/01/10 03:13:05;;;;;;;;;;;;;;;-1.77;100.00;99734.19;5597253;31;34678;-82
2022/01/10 03:16:08;;;;;;;;;;;;;;;-1.76;100.00;99733.28;5599569;31;35601;-82
2022/01/10 03:19:11;;;;;;;;;;;;;;;-1.78;100.00;99737.69;5596461;31;34095;-82
2022/01/10 03:22:13;;;;;;;;;;;;;;;-1.80;100.00;99739.53;5594495;31;33557;-82
2022/01/10 03:25:19;;;;;;;;;;;;;;;-1.80;100.00;99739.53;5596455;31;34650;-82
2022/01/10 03:28:22;;;;;;;;;;;;;;;-1.82;100.00;99747.41;5595696;31;34687;-82
2022/01/10 03:31:26;;;;;;;;;;;;;;;-1.68;100.00;99748.44;5594114;31;34521;-82
2022/01/10 03:34:29;;;;;;;;;;;;;;;-1.75;99.20;99745.34;5594358;31;35021;-82
2022/01/10 03:37:35;;;;;;;;;;;;;;;-1.78;99.58;99745.47;5594113;31;34574;-82
2022/01/10 03:40:40;;;;;;;;;;;;;;;-1.82;100.00;99749.13;5594324;31;34161;-82
2022/01/10 03:43:48;;;;;;;;;;;;;;;-1.80;100.00;99752.50;5595184;31;34587;-82
2022/01/10 03:46:53;;;;;;;;;;;;;;;-1.74;99.12;99755.63;5593968;31;34774;-82
2022/01/10 03:49:56;;;;;;;;;;;;;;;-1.74;99.40;99766.00;5594253;31;34520;-82
2022/01/10 03:52:58;;;;;;;;;;;;;;;-1.76;99.30;99767.00;5593911;31;34484;-82
2022/01/10 03:56:02;;;;;;;;;;;;;;;-1.71;99.33;99772.78;5594623;31;33763;-82
2022/01/10 03:59:06;;;;;;;;;;;;;;;-1.65;98.67;99780.28;5595474;31;35039;-82
2022/01/10 04:02:09;;;;;;;;;;;;;;;-1.68;99.13;99785.59;5595067;31;34674;-82
2022/01/10 04:05:12;;;;;;;;;;;;;;;-1.68;99.46;99780.41;5596877;31;34506;-83
2022/01/10 04:08:15;;;;;;;;;;;;;;;-1.68;99.63;99792.53;5597636;31;34804;-82
2022/01/10 04:11:17;;;;;;;;;;;;;;;-1.65;100.00;99795.84;5598350;31;34362;-83
2022/01/10 04:14:20;;;;;;;;;;;;;;;-1.60;100.00;99793.84;5596938;31;33972;-82
2022/01/10 04:17:25;;;;;;;;;;;;;;;-1.59;100.00;99795.53;5598408;31;34403;-82
2022/01/10 04:20:27;;;;;;;;;;;;;;;-1.61;99.89;99794.75;5597254;31;34431;-82
2022/01/10 04:23:32;;;;;;;;;;;;;;;-1.63;99.57;99799.19;5597180;31;34243;-82
2022/01/10 04:26:34;;;;;;;;;;;;;;;-1.57;98.64;99798.88;5600780;31;34317;-82
2022/01/10 04:29:37;;;;;;;;;;;;;;;-1.55;98.93;99801.41;5602986;31;34500;-82
2022/01/10 04:32:43;;;;;;;;;;;;;;;-1.60;98.76;99809.41;5597474;31;34517;-82
2022/01/10 04:35:48;;;;;;;;;;;;;;;-1.58;99.20;99810.19;5597018;31;34555;-82
2022/01/10 04:38:51;;;;;;;;;;;;;;;-1.56;98.88;99816.13;5596272;31;34598;-82
2022/01/10 04:41:54;;;;;;;;;;;;;;;-1.58;98.36;99815.38;5596284;31;34444;-82
2022/01/10 04:44:56;;;;;;;;;;;;;;;-1.59;98.40;99818.87;5596847;31;35254;-82
2022/01/10 04:48:00;;;;;;;;;;;;;;;-1.57;97.91;99816.19;5597385;31;34867;-82
2022/01/10 04:51:21;;;;;;;;;;;;;;;-1.56;97.66;99823.91;5596761;31;35551;-83
2022/01/10 04:54:27;;;;;;;;;;;;;;;-1.51;97.81;99828.03;5597700;31;35135;-82
2022/01/10 04:57:29;;;;;;;;;;;;;;;-1.51;98.23;99828.88;5596539;31;35525;-84
2022/01/10 05:00:35;;;;;;;;;;;;;;;-1.52;99.11;99829.78;5596083;31;34084;-83
2022/01/10 05:03:38;;;;;;;;;;;;;;;-1.54;98.23;99833.37;5598366;31;35091;-83
2022/01/10 05:06:45;;;;;;;;;;;;;;;-1.43;98.68;99831.09;5596919;31;34010;-82
2022/01/10 05:09:48;;;;;;;;;;;;;;;-1.42;98.49;99843.16;5596164;31;34885;-82
2022/01/10 05:12:51;;;;;;;;;;;;;;;-1.32;98.96;99844.38;5596020;31;34234;-82
2022/01/10 05:15:56;;;;;;;;;;;;;;;-1.35;100.00;99841.09;5595975;31;34276;-82
2022/01/10 05:18:58;;;;;;;;;;;;;;;-1.42;99.54;99848.34;5596594;31;35164;-84
2022/01/10 05:22:02;;;;;;;;;;;;;;;-1.39;99.46;99850.78;5596127;31;34238;-83
2022/01/10 05:25:08;;;;;;;;;;;;;;;-1.42;100.00;99848.34;5596222;31;34227;-83
2022/01/10 05:28:11;;;;;;;;;;;;;;;-1.47;98.64;99845.12;5596938;31;34422;-84
2022/01/10 05:31:16;;;;;;;;;;;;;;;-1.47;99.06;99839.94;5596525;31;34982;-83
2022/01/10 05:34:23;;;;;;;;;;;;;;;-1.25;97.41;99853.53;5596369;31;34664;-83
2022/01/10 05:37:26;;;;;;;;;;;;;;;-1.46;99.33;99852.00;5596309;31;34424;-83
2022/01/10 05:40:30;;;;;;;;;;;;;;;-1.54;99.10;99859.34;5596769;31;33992;-83
2022/01/10 05:43:33;;;;;;;;;;;;;;;-1.57;100.00;99849.91;5598074;31;34655;-83
2022/01/10 05:46:37;;;;;;;;;;;;;;;-1.45;100.00;99858.88;5600227;31;34444;-82
2022/01/10 05:49:46;;;;;;;;;;;;;;;-1.43;98.71;99862.25;5597748;31;34356;-82
2022/01/10 05:52:49;;;;;;;;;;;;;;;-1.32;97.14;99865.16;5596435;31;34785;-81
2022/01/10 05:55:52;;;;;;;;;;;;;;;-1.45;98.38;99866.66;5595861;31;34277;-82
2022/01/10 05:58:55;;;;;;;;;;;;;;;-1.51;98.25;99865.19;5595503;31;34072;-83
2022/01/10 06:01:58;;;;;;;;;;;;;;;-1.44;97.73;99870.94;5596129;31;33931;-83
2022/01/10 06:05:08;;;;;;;;;;;;;;;-1.57;98.78;99868.06;5595535;31;34457;-83
2022/01/10 06:08:12;;;;;;;;;;;;;;;-1.66;99.53;99871.97;5596465;31;34451;-82
2022/01/10 06:11:17;;;;;;;;;;;;;;;-1.65;99.57;99878.84;5594957;31;34540;-84
2022/01/10 06:14:21;;;;;;;;;;;;;;;-1.50;98.39;99881.59;5595488;31;34616;-84
2022/01/10 06:17:25;;;;;;;;;;;;;;;-1.45;97.74;99884.81;5594802;31;33982;-84
2022/01/10 06:20:28;;;;;;;;;;;;;;;-1.60;98.70;99884.63;5595804;31;34707;-83
2022/01/10 06:23:31;;;;;;;;;;;;;;;-1.34;97.28;99879.94;5595449;31;32580;-83
2022/01/10 06:26:34;;;;;;;;;;;;;;;-1.36;97.35;99894.75;5594411;31;34610;-82
2022/01/10 06:29:37;;;;;;;;;;;;;;;-1.35;96.91;99901.63;5595632;31;34110;-82
2022/01/10 06:32:39;;;;;;;;;;;;;;;-1.45;97.59;99901.22;5594501;31;34312;-82
2022/01/10 06:35:42;;;;;;;;;;;;;;;-1.45;97.76;99905.59;5596822;31;34503;-82
2022/01/10 06:38:45;;;;;;;;;;;;;;;-1.37;97.39;99907.81;5593869;31;35052;-82
2022/01/10 06:41:48;;;;;;;;;;;;;;;-1.52;98.57;99915.41;5599775;31;33935;-82
2022/01/10 06:44:52;;;;;;;;;;;;;;;-1.59;99.67;99920.06;5595907;31;34515;-82
2022/01/10 06:47:55;;;;;;;;;;;;;;;-1.58;99.76;99928.69;5595203;31;34010;-83
2022/01/10 06:50:58;;;;;;;;;;;;;;;-1.51;99.48;99926.63;5595826;31;34395;-82
2022/01/10 06:54:02;;;;;;;;;;;;;;;-1.42;98.98;99926.19;5595196;31;34236;-82
2022/01/10 06:57:04;;;;;;;;;;;;;;;-1.21;98.03;99928.66;5600984;31;34721;-82
2022/01/10 07:00:08;;;;;;;;;;;;;;;-1.18;97.63;99938.91;5595143;31;34316;-82
2022/01/10 07:03:11;;;;;;;;;;;;;;;-1.23;98.11;99946.06;5595643;31;34662;-83
2022/01/10 07:06:14;;;;;;;;;;;;;;;-1.32;99.08;99943.00;5594408;31;35400;-82
2022/01/10 07:09:17;;;;;;;;;;;;;;;-1.26;99.79;99950.47;5594773;31;34222;-82
2022/01/10 07:12:22;;;;;;;;;;;;;;;-1.13;98.88;99947.28;5595086;31;34332;-83
2022/01/10 07:15:29;;;;;;;;;;;;;;;-1.29;99.96;99955.81;5595213;31;34410;-83
2022/01/10 07:18:32;;;;;;;;;;;;;;;-1.27;100.00;99956.59;5594915;31;34112;-82
2022/01/10 07:21:38;;;;;;;;;;;;;;;-1.21;99.83;99954.63;5594883;31;34001;-82
2022/01/10 07:24:45;;;;;;;;;;;;;;;-1.15;99.55;99962.09;5594720;31;34361;-82
2022/01/10 07:27:47;;;;;;;;;;;;;;;-1.25;99.99;99959.97;5594585;31;34537;-83
2022/01/10 07:30:50;;;;;;;;;;;;;;;-1.06;99.08;99971.22;5595974;31;34402;-82
2022/01/10 07:33:54;;;;;;;;;;;;;;;-1.01;99.09;99972.66;5594307;31;34372;-83
2022/01/10 07:36:57;;;;;;;;;;;;;;;-0.98;98.91;99980.31;5595295;31;34231;-82
2022/01/10 07:40:02;;;;;;;;;;;;;;;-1.03;99.18;99978.84;5596744;31;34951;-82
2022/01/10 07:43:05;;;;;;;;;;;;;;;-0.93;98.46;99983.50;5583202;31;34343;-82
2022/01/10 07:46:08;;;;;;;;;;;;;;;-0.93;98.42;99980.91;5597084;31;34925;-82
2022/01/10 07:49:11;;;;;;;;;;;;;;;-1.27;99.31;99992.94;5597542;31;34530;-82
2022/01/10 07:52:13;;;;;;;;;;;;;;;-1.31;99.60;99994.00;5597104;31;34037;-82
2022/01/10 07:55:36;;;;;;;;;;;;;;;-1.57;100.00;99996.06;5596340;31;34466;-83
2022/01/10 07:58:38;;;;;;;;;;;;;;;-1.60;100.00;100000.56;5596609;31;34864;-82
2022/01/10 08:01:47;;;;;;;;;;;;;;;-1.65;100.00;100008.56;5597152;31;34531;-83
2022/01/10 08:05:10;;;;;;;;;;;;;;;-1.58;100.00;100001.34;5596175;31;34664;-83
2022/01/10 08:08:35;;;;;;;;;;;;;;;-1.61;100.00;100012.66;5597663;31;34946;-82
2022/01/10 08:12:01;;;;;;;;;;;;;;;-1.54;100.00;100013.22;5601249;31;34655;-82
2022/01/10 08:15:23;;;;;;;;;;;;;;;-1.38;100.00;100015.94;5598500;31;34598;-83
2022/01/10 08:18:30;;;;;;;;;;;;;;;-1.49;100.00;100013.00;5598272;31;34846;-83
2022/01/10 08:21:32;;;;;;;;;;;;;;;-1.38;100.00;100005.56;5601646;31;33994;-83
2022/01/10 08:24:35;;;;;;;;;;;;;;;-1.42;100.00;100009.25;5586204;31;35056;-82
2022/01/10 08:27:38;;;;;;;;;;;;;;;-1.32;100.00;100005.31;5596723;31;34625;-82
2022/01/10 08:30:41;;;;;;;;;;;;;;;-1.27;100.00;100005.06;5596848;31;34338;-82
2022/01/10 08:33:47;;;;;;;;;;;;;;;-1.37;100.00;100007.25;5597498;31;35057;-82
2022/01/10 08:36:51;;;;;;;;;;;;;;;-1.35;100.00;100015.00;5597216;31;33899;-82
2022/01/10 08:39:53;;;;;;;;;;;;;;;-1.16;100.00;100013.19;5596348;31;35089;-83
2022/01/10 08:42:56;;;;;;;;;;;;;;;-1.33;100.00;100021.78;5596240;31;34718;-82
2022/01/10 08:45:58;;;;;;;;;;;;;;;-1.16;100.00;100020.13;5596735;31;35008;-82
2022/01/10 08:49:01;;;;;;;;;;;;;;;-1.29;100.00;100025.91;5596719;31;34432;-83
2022/01/10 08:52:04;;;;;;;;;;;;;;;-1.14;100.00;100033.87;5596302;31;34154;-82
2022/01/10 08:55:08;;;;;;;;;;;;;;;-1.07;99.10;100037.88;5597078;31;35163;-82
2022/01/10 08:58:11;;;;;;;;;;;;;;;-0.95;98.41;100033.84;5596601;31;34201;-82
2022/01/10 09:01:15;;;;;;;;;;;;;;;-0.91;96.61;100047.53;5596461;31;34337;-82
2022/01/10 09:04:18;;;;;;;;;;;;;;;-0.86;95.91;100037.75;5596364;31;34681;-82
2022/01/10 09:07:21;;;;;;;;;;;;;;;-0.88;95.08;100035.22;5596419;31;34577;-82
2022/01/10 09:10:23;;;;;;;;;;;;;;;-0.81;94.71;100040.97;5596181;31;34075;-82
2022/01/10 09:13:26;;;;;;;;;;;;;;;-0.65;92.95;100044.50;5597528;31;35101;-82
2022/01/10 09:16:28;;;;;;;;;;;;;;;-0.70;93.99;100048.25;5597617;31;34530;-83
2022/01/10 09:19:31;;;;;;;;;;;;;;;-0.55;93.18;100046.66;5595771;31;34019;-82
2022/01/10 09:22:33;;;;;;;;;;;;;;;-0.39;91.11;100047.53;5596665;31;34694;-82
2022/01/10 09:25:36;;;;;;;;;;;;;;;-0.30;91.67;100058.41;5602510;31;35664;-82
2022/01/10 09:28:38;;;;;;;;;;;;;;;-0.27;91.25;100051.28;5596501;31;32734;-82
2022/01/10 09:31:41;;;;;;;;;;;;;;;-0.22;90.93;100053.66;5596047;31;34128;-82
2022/01/10 09:34:44;;;;;;;;;;;;;;;-0.24;89.95;100055.50;5596613;31;34754;-82
2022/01/10 09:37:46;;;;;;;;;;;;;;;-0.22;90.44;100053.66;5597198;31;34979;-82
2022/01/10 09:40:49;;;;;;;;;;;;;;;-0.17;90.79;100056.88;5595587;31;34071;-82
2022/01/10 09:43:56;;;;;;;;;;;;;;;0.12;88.89;100054.53;5595618;31;34639;-82
2022/01/10 09:46:59;;;;;;;;;;;;;;;0.23;88.08;100064.34;5595416;31;33950;-82
2022/01/10 09:50:02;;;;;;;;;;;;;;;0.39;87.34;100067.00;5594808;31;34089;-83
2022/01/10 09:53:05;;;;;;;;;;;;;;;0.34;86.56;100061.19;5596617;31;34304;-83
2022/01/10 09:56:08;;;;;;;;;;;;;;;0.46;86.04;100057.94;5597158;31;35178;-82
2022/01/10 09:59:15;;;;;;;;;;;;;;;0.33;88.24;100059.50;5597317;31;34627;-82
2022/01/10 10:02:18;;;;;;;;;;;;;;;0.42;87.46;100059.00;5595818;31;34060;-82
2022/01/10 10:05:26;;;;;;;;;;;;;;;0.59;86.43;100056.34;5597869;31;34684;-83
2022/01/10 10:08:29;;;;;;;;;;;;;;;0.83;84.50;100058.53;5595053;31;34901;-82
2022/01/10 10:11:39;;;;;;;;;;;;;;;0.88;83.27;100056.50;5595027;31;34632;-82
2022/01/10 10:14:44;;;;;;;;;;;;;;;0.89;83.66;100050.37;5595660;31;34022;-83
2022/01/10 10:17:50;;;;;;;;;;;;;;;1.04;83.17;100053.06;5595995;31;34638;-83
2022/01/10 10:20:53;;;;;;;;;;;;;;;1.15;82.20;100048.09;5595032;31;34728;-83
2022/01/10 10:23:56;;;;;;;;;;;;;;;1.13;82.11;100052.53;5595574;31;35010;-83
2022/01/10 10:26:59;;;;;;;;;;;;;;;1.31;81.29;100053.25;5595475;31;34679;-83
2022/01/10 10:30:05;;;;;;;;;;;;;;;1.40;80.42;100051.91;5595474;31;34652;-82
2022/01/10 10:33:17;;;;;;;;;;;;;;;1.29;81.00;100049.91;5595555;31;34498;-83
2022/01/10 10:36:20;;;;;;;;;;;;;;;1.37;81.19;100052.06;5600321;31;34914;-83
2022/01/10 10:39:25;;;;;;;;;;;;;;;1.54;79.90;100054.53;5597199;31;34850;-83
2022/01/10 10:42:29;;;;;;;;;;;;;;;1.69;78.68;100058.00;5595777;31;34481;-83
2022/01/10 10:45:31;;;;;;;;;;;;;;;1.70;78.57;100053.63;5595396;31;34562;-82
2022/01/10 10:48:37;;;;;;;;;;;;;;;1.90;77.72;100059.44;5595066;31;34081;-83
2022/01/10 10:51:39;;;;;;;;;;;;;;;2.00;76.84;100050.13;5595440;31;35087;-83
2022/01/10 10:54:42;;;;;;;;;;;;;;;2.04;76.25;100058.59;5595342;31;34842;-82
2022/01/10 10:57:48;;;;;;;;;;;;;;;2.06;74.62;100051.53;5596908;31;34646;-82
2022/01/10 11:00:53;;;;;;;;;;;;;;;1.91;75.98;100059.38;5598354;31;34773;-82
2022/01/10 11:03:56;;;;;;;;;;;;;;;1.92;75.05;100052.38;5600435;31;35289;-84
2022/01/10 11:06:59;;;;;;;;;;;;;;;2.03;74.51;100064.78;5595742;31;34745;-83
2022/01/10 11:10:05;;;;;;;;;;;;;;;2.20;74.46;100061.97;5595608;31;34755;-83
2022/01/10 11:13:09;;;;;;;;;;;;;;;2.26;73.00;100052.94;5594692;31;34794;-82
2022/01/10 11:16:12;;;;;;;;;;;;;;;2.24;72.27;100057.41;5594762;31;34828;-83
2022/01/10 11:19:21;;;;;;;;;;;;;;;2.33;71.37;100056.84;5595400;31;35522;-83
2022/01/10 11:22:29;;;;;;;;;;;;;;;2.28;72.60;100059.72;5596140;31;34671;-83
2022/01/10 11:25:33;;;;;;;;;;;;;;;2.34;72.25;100063.75;5596873;31;34530;-83
2022/01/10 11:28:54;;;;;;;;;;;;;;;2.48;69.62;100065.50;5596369;31;34461;-84
2022/01/10 11:31:59;;;;;;;;;;;;;;;2.40;69.47;100066.00;5596338;31;34370;-83
2022/01/10 11:35:10;;;;;;;;;;;;;;;2.47;67.34;100082.94;5595863;31;34899;-83
2022/01/10 11:38:21;;;;;;;;;;;;;;;2.51;67.63;100069.69;5595522;31;34428;-83
2022/01/10 11:41:32;;;;;;;;;;;;;;;2.59;67.42;100070.87;5594394;31;34617;-83
2022/01/10 11:44:35;;;;;;;;;;;;;;;2.50;67.91;100073.25;5595361;31;35057;-83
2022/01/10 11:47:56;;;;;;;;;;;;;;;2.61;67.35;100076.03;5600148;31;34619;-84
2022/01/10 11:51:22;;;;;;;;;;;;;;;2.72;66.92;100084.03;5594855;31;33929;-83
2022/01/10 11:54:36;;;;;;;;;;;;;;;2.77;66.99;100081.97;5593768;31;34173;-83
2022/01/10 11:57:41;;;;;;;;;;;;;;;2.61;64.48;100086.47;5596400;31;34980;-83
2022/01/10 12:00:44;;;;;;;;;;;;;;;2.67;63.24;100090.47;5594696;31;34975;-83
2022/01/10 12:03:46;;;;;;;;;;;;;;;2.79;63.39;100084.50;5594196;31;34537;-83
2022/01/10 12:06:50;;;;;;;;;;;;;;;2.82;63.27;100089.50;5593663;31;34870;-83
2022/01/10 12:09:55;;;;;;;;;;;;;;;2.95;61.97;100094.81;5594297;31;34585;-82
2022/01/10 12:13:06;;;;;;;;;;;;;;;2.77;63.11;100096.81;5594876;31;35341;-83
2022/01/10 12:16:11;;;;;;;;;;;;;;;2.86;63.12;100100.63;5593873;31;35146;-83
2022/01/10 12:19:14;;;;;;;;;;;;;;;2.95;61.10;100105.28;5593582;31;34920;-82
2022/01/10 12:22:19;;;;;;;;;;;;;;;3.06;61.70;100112.41;5594625;31;34240;-83
2022/01/10 12:25:22;;;;;;;;;;;;;;;3.07;60.39;100104.50;5596977;31;34793;-84
2022/01/10 12:28:27;;;;;;;;;;;;;;;3.15;60.76;100103.16;5597989;31;34290;-83
2022/01/10 12:31:30;;;;;;;;;;;;;;;3.06;61.38;100104.56;5596733;31;34905;-82
2022/01/10 12:34:38;;;;;;;;;;;;;;;3.13;61.04;100102.41;5597599;31;34631;-82
2022/01/10 12:37:41;;;;;;;;;;;;;;;2.94;62.28;100109.62;5598403;31;34338;-82
2022/01/10 12:40:48;;;;;;;;;;;;;;;2.87;62.19;100112.75;5596697;31;34765;-82
2022/01/10 12:43:51;;;;;;;;;;;;;;;2.97;60.98;100116.47;5597350;31;34177;-82
2022/01/10 12:46:54;;;;;;;;;;;;;;;2.97;60.96;100119.09;5596784;31;34281;-82
2022/01/10 12:49:56;;;;;;;;;;;;;;;2.98;60.94;100125.13;5602516;31;34457;-82
2022/01/10 12:52:59;;;;;;;;;;;;;;;3.04;60.64;100130.81;5605654;31;34357;-83
2022/01/10 12:56:01;;;;;;;;;;;;;;;3.15;60.17;100131.91;5604158;31;35125;-82
2022/01/10 12:59:04;;;;;;;;;;;;;;;3.05;59.97;100137.72;5606923;31;35581;-82
2022/01/10 13:02:09;;;;;;;;;;;;;;;3.16;58.46;100139.66;5605603;31;35584;-81
2022/01/10 13:05:21;;;;;;;;;;;;;;;3.16;58.55;100139.66;5597833;31;34614;-82
2022/01/10 13:08:23;;;;;;;;;;;;;;;3.08;59.63;100147.12;5599012;31;34328;-83
2022/01/10 13:11:32;;;;;;;;;;;;;;;3.24;58.06;100152.22;5598180;31;34527;-81
2022/01/10 13:14:35;;;;;;;;;;;;;;;3.26;57.12;100168.66;5595883;31;34708;-81
2022/01/10 13:17:39;;;;;;;;;;;;;;;3.26;56.25;100171.28;5601652;31;35285;-81
2022/01/10 13:20:43;;;;;;;;;;;;;;;3.22;57.12;100180.25;5597280;31;34410;-83
2022/01/10 13:23:46;;;;;;;;;;;;;;;3.07;60.14;100177.69;5596706;31;34243;-83
2022/01/10 13:27:06;;;;;;;;;;;;;;;3.02;59.25;100184.13;5596806;31;34795;-82
2022/01/10 13:30:11;;;;;;;;;;;;;;;2.98;61.13;100187.88;5595667;31;34419;-82
2022/01/10 13:33:14;;;;;;;;;;;;;;;2.82;61.37;100193.19;5596811;31;34363;-82
2022/01/10 13:36:17;;;;;;;;;;;;;;;2.80;60.21;100195.91;5596297;31;34427;-84
2022/01/10 13:39:20;;;;;;;;;;;;;;;2.92;59.33;100191.69;5596214;31;34576;-84
2022/01/10 13:42:24;;;;;;;;;;;;;;;2.86;60.39;100195.53;5595978;31;33824;-82
2022/01/10 13:45:44;;;;;;;;;;;;;;;3.07;59.29;100198.59;5600648;31;32531;-83
2022/01/10 13:48:53;;;;;;;;;;;;;;;3.00;60.02;100201.69;5597269;31;34497;-82
2022/01/10 13:52:09;;;;;;;;;;;;;;;2.89;58.51;100210.16;5596490;31;34644;-82
2022/01/10 13:55:13;;;;;;;;;;;;;;;3.09;57.57;100204.56;5596656;31;34394;-83
2022/01/10 13:58:22;;;;;;;;;;;;;;;3.01;58.09;100206.78;5598181;31;34772;-83
2022/01/10 14:01:29;;;;;;;;;;;;;;;3.09;56.90;100217.66;5596121;31;33992;-82
2022/01/10 14:04:34;;;;;;;;;;;;;;;3.03;57.43;100210.16;5597259;31;34549;-82
2022/01/10 14:07:38;;;;;;;;;;;;;;;3.01;57.48;100222.47;5598009;31;34877;-82
2022/01/10 14:10:43;;;;;;;;;;;;;;;3.02;57.78;100223.34;5597538;31;34800;-82
2022/01/10 14:13:48;;;;;;;;;;;;;;;2.95;58.54;100230.72;5597919;31;34224;-82
2022/01/10 14:16:55;;;;;;;;;;;;;;;2.88;59.01;100239.84;5596292;31;34945;-82
2022/01/10 14:19:57;;;;;;;;;;;;;;;2.85;59.01;100240.06;5595864;31;34750;-82
2022/01/10 14:23:00;;;;;;;;;;;;;;;2.81;58.25;100246.38;5596405;31;34289;-83
2022/01/10 14:26:03;;;;;;;;;;;;;;;2.93;59.19;100249.09;5594438;31;34269;-82
2022/01/10 14:29:07;;;;;;;;;;;;;;;2.96;58.57;100253.31;5596232;31;35408;-82
2022/01/10 14:32:11;;;;;;;;;;;;;;;2.93;58.45;100261.31;5596477;31;34688;-82
2022/01/10 14:35:13;;;;;;;;;;;;;;;2.82;59.50;100258.50;5595477;31;34177;-82
2022/01/10 14:38:16;;;;;;;;;;;;;;;2.65;60.13;100260.34;5596414;31;34094;-82
2022/01/10 14:41:22;;;;;;;;;;;;;;;2.53;59.57;100268.94;5595926;31;34382;-82
2022/01/10 14:44:24;;;;;;;;;;;;;;;2.51;60.14;100273.41;5597487;31;34546;-82
2022/01/10 14:47:30;;;;;;;;;;;;;;;2.63;59.28;100276.12;5594704;31;33730;-82
2022/01/10 14:50:34;;;;;;;;;;;;;;;2.54;58.99;100283.66;5595619;31;34697;-82
2022/01/10 14:53:41;;;;;;;;;;;;;;;2.52;59.41;100280.31;5598465;31;34293;-83
2022/01/10 14:56:43;;;;;;;;;;;;;;;2.55;58.84;100282.72;5597831;31;34135;-82
2022/01/10 14:59:47;;;;;;;;;;;;;;;2.39;59.49;100290.63;5597279;31;36162;-82
2022/01/10 15:02:49;;;;;;;;;;;;;;;2.12;60.70;100297.34;5595529;31;34508;-82
2022/01/10 15:05:52;;;;;;;;;;;;;;;1.93;62.98;100304.53;5594591;31;35187;-83
2022/01/10 15:08:55;;;;;;;;;;;;;;;1.91;63.64;100306.38;5595844;31;34735;-82
2022/01/10 15:11:57;;;;;;;;;;;;;;;1.72;64.22;100316.97;5596687;31;35221;-82
2022/01/10 15:15:01;;;;;;;;;;;;;;;1.52;65.12;100317.12;5594976;31;34473;-82
2022/01/10 15:18:05;;;;;;;;;;;;;;;1.31;66.03;100319.13;5595193;31;34611;-82
2022/01/10 15:21:08;;;;;;;;;;;;;;;1.56;70.26;100328.25;5596005;31;34519;-82
2022/01/10 15:24:11;;;;;;;;;;;;;;;1.67;71.29;100340.69;5601876;31;34418;-82
2022/01/10 15:27:14;;;;;;;;;;;;;;;1.39;73.14;100343.03;5596812;31;34409;-82
2022/01/10 15:30:16;;;;;;;;;;;;;;;1.23;74.72;100350.81;5594546;31;34379;-82
2022/01/10 15:33:19;;;;;;;;;;;;;;;1.02;76.46;100360.56;5594567;31;34081;-82
2022/01/10 15:36:22;;;;;;;;;;;;;;;0.85;78.25;100358.81;5595270;31;34330;-83
2022/01/10 15:39:24;;;;;;;;;;;;;;;0.70;79.34;100370.03;5594595;31;34163;-82
2022/01/10 15:42:27;;;;;;;;;;;;;;;1.12;79.67;100375.75;5596489;31;34221;-84
2022/01/10 15:45:29;;;;;;;;;;;;;;;1.11;80.23;100380.09;5594179;31;34123;-82
2022/01/10 15:48:33;;;;;;;;;;;;;;;1.41;78.88;100382.03;5594568;31;34877;-82
2022/01/10 15:51:35;;;;;;;;;;;;;;;1.13;80.36;100387.84;5593742;31;34927;-82
2022/01/10 15:54:38;;;;;;;;;;;;;;;1.03;80.69;100397.91;5595309;31;34824;-82
2022/01/10 15:57:41;;;;;;;;;;;;;;;0.77;81.84;100397.44;5595758;31;34233;-82
2022/01/10 16:00:44;;;;;;;;;;;;;;;0.52;83.45;100403.00;5596398;31;33754;-82
2022/01/10 16:03:48;;;;;;;;;;;;;;;0.54;83.86;100409.81;5597183;31;34500;-82
2022/01/10 16:06:50;;;;;;;;;;;;;;;0.40;84.55;100410.50;5598884;31;34197;-82